LPFRLPCS

Guest
Details From LPFR - Faro
To LPCS - CASCAIS
Flight Number -
Tags generated
Created
Modified
Stats Distance 122 nm / 226 km
Max Altitude 12,500 ft / 3,810 m
Waypoints 4
Social Downloads 2
Likes 0
Share VATSIM

Download

Looking for another format? Having issues loading an existing format? Contact us
Advertisement - Login to hide

Notes

Basic altitude profile: - Ascent Rate: 500ft/min - Ascent Speed: 80kts - Cruise Altitude: 5500ft - Cruise Speed: 100kts - Descent Rate: 500ft/min - Descent Speed: 100kts Options: - Use NATs: yes - Use PACOTS: yes - Use low airways: yes - Use high airways: no

Route

LPFR ODEMI A5 TROIA LPCS

ID Type Via Altitude Latitude Longitude Leg Dist Tot Dist Heading (true) Name
O LPFR APT - 0 ft / 0 m 37.01534˚ -7.97233˚ - 0 nm - Faro
ODEMI FIX - 12,500 ft / 3,810 m 37.49750˚ -8.38389˚ 35 nm 35 nm 326° / 326° -
TROIA FIX A5 (AWY-LO) 9,600 ft / 2,926 m 38.07333˚ -8.87917˚ 41 nm 76 nm 326° / 326° -
O LPCS APT - 0 ft / 0 m 38.72518˚ -9.35526˚ 45 nm 121 nm 330° / 330° CASCAIS

Altitude Profile

Advertisement - Login to hide

LPFR

Details ICAO LPFR (FAO)
Name Faro
Region Portugal
Timezone Europe/Lisbon (UTC+0.0)
Stats Elevation 24 ft / 7 m (AMSL)
Location 37.015336° -7.972327°
Runways 1
Magnetic Variation 1.935° W

METAR

LPFR 180830Z 04009KT CAVOK 09/00 Q1031

Decode

TAF

TAF LPFR 180500Z 1806/1906 08013KT CAVOK BECMG 1818/1821 02007KT

Decode

Departure Runways

ID Width Length Bearing (true) Bearing (mag) Surface Threshold Offset Overrun Length
10 148 ft / 45 m 8,148 ft / 2,484 m 100.08° 102.01° Asphalt 148 ft / 45 m 0 ft / 0 m
28 148 ft / 45 m 8,148 ft / 2,484 m 280.10° 282.03° Asphalt 148 ft / 45 m 0 ft / 0 m

LPCS

Details ICAO LPCS
Name CASCAIS
Region Portugal
Timezone Europe/Lisbon (UTC+0.0)
Stats Elevation 326 ft / 99 m (AMSL)
Location 38.725175° -9.355256°
Runways 1
Magnetic Variation 2.434° W

METAR

LPCS 180830Z 03006KT CAVOK 06/00 Q1033

Decode

TAF

Not found

Destination Runways

ID Width Length Bearing (true) Bearing (mag) Surface Threshold Offset Overrun Length
17 98 ft / 30 m 5,664 ft / 1,726 m 164.14° 166.57° Asphalt 354 ft / 108 m 0 ft / 0 m
35 98 ft / 30 m 5,664 ft / 1,726 m 344.14° 346.57° Asphalt 574 ft / 175 m 0 ft / 0 m

Popular Alternatives